createdAt,value
2022-10-16T00:02:12.328Z,12.20
2022-10-16T00:04:39.329Z,12.20
2022-10-16T00:07:06.426Z,12.20
2022-10-16T00:09:33.139Z,12.20
2022-10-16T00:11:59.941Z,12.20
2022-10-16T00:14:26.582Z,12.20
2022-10-16T00:16:53.250Z,12.20
2022-10-16T00:19:19.975Z,12.20
2022-10-16T00:21:46.671Z,12.20
2022-10-16T00:24:13.297Z,12.30
2022-10-16T00:26:40.031Z,12.30
2022-10-16T00:29:06.776Z,12.30
2022-10-16T00:31:33.709Z,12.30
2022-10-16T00:34:01.372Z,12.30
2022-10-16T00:36:28.111Z,12.30
2022-10-16T00:38:55.703Z,12.30
2022-10-16T00:41:22.635Z,12.30
2022-10-16T00:43:49.285Z,12.20
2022-10-16T00:46:15.975Z,12.20
2022-10-16T00:48:42.678Z,12.20
2022-10-16T00:51:09.404Z,12.20
2022-10-16T00:53:36.163Z,12.10
2022-10-16T00:56:02.802Z,12.10
2022-10-16T00:58:29.512Z,12.10
2022-10-16T01:00:56.296Z,12.10
2022-10-16T01:03:23.072Z,12.10
2022-10-16T01:05:52.072Z,12.00
2022-10-16T01:08:18.732Z,12.00
2022-10-16T01:10:45.376Z,12.00
2022-10-16T01:13:12.162Z,12.00
2022-10-16T01:18:10.476Z,12.00
2022-10-16T01:20:39.160Z,11.90
2022-10-16T01:23:05.845Z,11.90
2022-10-16T01:25:32.867Z,11.90
2022-10-16T01:27:59.566Z,11.90
2022-10-16T01:30:26.248Z,11.90
2022-10-16T01:32:52.999Z,11.90
2022-10-16T01:35:19.707Z,11.90
2022-10-16T01:37:46.394Z,11.90
2022-10-16T01:40:13.163Z,11.90
2022-10-16T01:42:39.861Z,11.90
2022-10-16T01:45:08.714Z,11.90
2022-10-16T01:47:35.422Z,11.90
2022-10-16T01:50:02.321Z,11.90
2022-10-16T01:52:29.335Z,11.90
2022-10-16T01:54:56.280Z,12.00
2022-10-16T01:57:22.937Z,12.00
2022-10-16T01:59:49.870Z,12.10
2022-10-16T02:02:16.613Z,12.10
2022-10-16T02:04:43.256Z,12.20
2022-10-16T02:07:09.938Z,12.20
2022-10-16T02:09:36.650Z,12.30
2022-10-16T02:12:03.779Z,12.30
2022-10-16T02:14:30.520Z,12.30
2022-10-16T02:16:57.220Z,12.30
2022-10-16T02:19:23.929Z,12.40
2022-10-16T02:21:50.591Z,12.40
2022-10-16T02:24:17.235Z,12.30
2022-10-16T02:26:43.920Z,12.40
2022-10-16T02:29:10.597Z,12.40
2022-10-16T02:31:37.271Z,12.30
2022-10-16T02:34:04.730Z,12.30
2022-10-16T02:36:31.433Z,12.20
2022-10-16T02:38:58.137Z,12.20
2022-10-16T02:41:24.858Z,12.10
2022-10-16T02:43:51.609Z,12.10
2022-10-16T02:46:18.235Z,12.00
2022-10-16T02:48:44.989Z,12.00
2022-10-16T02:51:11.753Z,12.00
2022-10-16T02:53:38.441Z,11.90
2022-10-16T02:56:05.107Z,11.90
2022-10-16T02:58:31.879Z,11.80
2022-10-16T03:00:58.624Z,11.80
2022-10-16T03:03:25.336Z,11.80
2022-10-16T03:05:51.992Z,11.70
2022-10-16T03:08:24.261Z,11.70
2022-10-16T03:10:50.966Z,11.70
2022-10-16T03:13:17.708Z,11.60
2022-10-16T03:15:44.369Z,11.60
2022-10-16T03:18:11.048Z,11.60
2022-10-16T03:20:37.864Z,11.60
2022-10-16T03:23:04.555Z,11.50
2022-10-16T03:25:31.318Z,11.50
2022-10-16T03:27:58.011Z,11.50
2022-10-16T03:30:24.683Z,11.50
2022-10-16T03:32:55.058Z,11.40
2022-10-16T03:35:21.893Z,11.40
2022-10-16T03:37:48.557Z,11.40
2022-10-16T03:40:15.253Z,11.40
2022-10-16T03:42:41.894Z,11.40
2022-10-16T03:45:08.607Z,11.40
2022-10-16T03:47:35.384Z,11.40
2022-10-16T03:50:02.108Z,11.40
2022-10-16T03:52:28.825Z,11.40
2022-10-16T03:54:55.468Z,11.40
2022-10-16T03:57:22.118Z,11.40
2022-10-16T03:59:48.815Z,11.30
2022-10-16T04:02:15.520Z,11.30
2022-10-16T04:04:42.186Z,11.30
2022-10-16T04:07:08.981Z,11.30
2022-10-16T04:09:35.754Z,11.40
2022-10-16T04:12:02.444Z,11.40
2022-10-16T04:14:29.149Z,11.40
2022-10-16T04:16:55.836Z,11.40
2022-10-16T04:19:22.517Z,11.40
2022-10-16T04:21:49.231Z,11.40
2022-10-16T04:24:15.918Z,11.40
2022-10-16T04:26:42.592Z,11.40
2022-10-16T04:29:09.257Z,11.40
2022-10-16T04:31:36.051Z,11.30
2022-10-16T04:34:02.726Z,11.40
2022-10-16T04:36:29.493Z,11.30
2022-10-16T04:38:56.248Z,11.40
2022-10-16T04:41:22.941Z,11.30
2022-10-16T04:43:49.696Z,11.30
2022-10-16T04:46:16.372Z,11.30
2022-10-16T04:48:43.112Z,11.30
2022-10-16T04:51:09.767Z,11.30
2022-10-16T04:53:36.446Z,11.30
2022-10-16T04:56:03.185Z,11.30
2022-10-16T04:58:29.916Z,11.30
2022-10-16T05:00:56.629Z,11.30
2022-10-16T05:03:23.378Z,11.30
2022-10-16T05:05:50.257Z,11.20
2022-10-16T05:08:16.964Z,11.20
2022-10-16T05:10:43.694Z,11.20
2022-10-16T05:13:10.434Z,11.20
2022-10-16T05:15:37.123Z,11.20
2022-10-16T05:18:03.810Z,11.20
2022-10-16T05:20:30.623Z,11.20
2022-10-16T05:22:57.302Z,11.10
2022-10-16T05:25:23.983Z,11.10
2022-10-16T05:27:50.733Z,11.10
2022-10-16T05:30:17.427Z,11.10
2022-10-16T05:32:44.089Z,11.10
2022-10-16T05:35:12.696Z,11.10
2022-10-16T05:37:39.618Z,11.00
2022-10-16T05:40:06.293Z,11.00
2022-10-16T05:42:32.960Z,11.00
2022-10-16T05:44:59.656Z,11.00
2022-10-16T05:47:26.514Z,11.00
2022-10-16T05:49:53.478Z,10.90
2022-10-16T05:52:20.159Z,10.90
2022-10-16T05:54:46.914Z,10.90
2022-10-16T05:57:13.584Z,10.90
2022-10-16T05:59:40.244Z,10.90
2022-10-16T06:02:06.941Z,10.90
2022-10-16T06:04:33.597Z,10.80
2022-10-16T06:07:01.608Z,10.80
2022-10-16T06:09:28.579Z,10.80
2022-10-16T06:11:55.780Z,10.80
2022-10-16T06:14:22.518Z,10.80
2022-10-16T06:16:49.269Z,10.80
2022-10-16T06:19:17.293Z,10.70
2022-10-16T06:21:43.996Z,10.70
2022-10-16T06:24:10.704Z,10.70
2022-10-16T06:26:37.373Z,10.70
2022-10-16T06:29:04.112Z,10.70
2022-10-16T06:31:32.231Z,10.70
2022-10-16T06:33:59.012Z,10.70
2022-10-16T06:36:26.039Z,10.70
2022-10-16T06:38:52.694Z,10.60
2022-10-16T06:41:19.396Z,10.60
2022-10-16T06:43:46.454Z,10.60
2022-10-16T06:46:13.156Z,10.60
2022-10-16T06:48:39.843Z,10.60
2022-10-16T06:51:06.527Z,10.60
2022-10-16T06:53:39.633Z,10.60
2022-10-16T06:56:10.880Z,10.60
2022-10-16T06:58:37.528Z,10.60
2022-10-16T07:01:04.204Z,10.70
2022-10-16T07:03:30.865Z,10.60
2022-10-16T07:05:57.634Z,10.60
2022-10-16T07:08:24.288Z,10.60
2022-10-16T07:10:50.974Z,10.70
2022-10-16T07:13:17.644Z,10.70
2022-10-16T07:15:44.378Z,10.70
2022-10-16T07:18:11.125Z,10.70
2022-10-16T07:20:38.575Z,10.80
2022-10-16T07:23:05.265Z,10.70
2022-10-16T07:25:31.952Z,10.80
2022-10-16T07:27:58.682Z,10.80
2022-10-16T07:30:25.386Z,10.80
2022-10-16T07:32:52.098Z,10.80
2022-10-16T07:35:18.807Z,10.80
2022-10-16T07:37:45.522Z,10.80
2022-10-16T07:40:12.220Z,10.90
2022-10-16T07:42:38.891Z,10.90
2022-10-16T07:45:05.628Z,10.90
2022-10-16T07:47:32.281Z,10.90
2022-10-16T07:49:59.027Z,11.00
2022-10-16T07:52:25.740Z,11.00
2022-10-16T07:54:52.490Z,11.00
2022-10-16T07:57:20.873Z,11.00
2022-10-16T07:59:47.697Z,11.10
2022-10-16T08:02:14.564Z,11.10
2022-10-16T08:04:41.334Z,11.10
2022-10-16T08:07:08.041Z,11.20
2022-10-16T08:09:34.768Z,11.20
2022-10-16T08:12:02.576Z,11.30
2022-10-16T08:14:29.362Z,11.40
2022-10-16T08:16:56.029Z,11.40
2022-10-16T08:19:23.326Z,11.50
2022-10-16T08:21:50.069Z,11.60
2022-10-16T08:24:16.738Z,11.70
2022-10-16T08:26:43.480Z,11.80
2022-10-16T08:29:10.269Z,11.80
2022-10-16T08:31:36.995Z,11.90
2022-10-16T08:34:03.689Z,11.90
2022-10-16T08:36:30.398Z,11.90
2022-10-16T08:38:57.194Z,12.00
2022-10-16T08:41:25.234Z,12.00
2022-10-16T08:43:51.910Z,12.00
2022-10-16T08:46:18.806Z,12.00
2022-10-16T08:48:48.362Z,12.10
2022-10-16T08:51:15.024Z,12.10
2022-10-16T08:53:41.771Z,12.10
2022-10-16T08:56:08.437Z,12.20
2022-10-16T08:58:35.123Z,12.20
2022-10-16T09:01:01.978Z,12.20
2022-10-16T09:03:28.738Z,12.30
2022-10-16T09:05:55.465Z,12.30
2022-10-16T09:08:25.079Z,12.30
2022-10-16T09:10:51.792Z,12.30
2022-10-16T09:13:18.505Z,12.30
2022-10-16T09:15:45.583Z,12.40
2022-10-16T09:18:12.292Z,12.40
2022-10-16T09:20:39.032Z,12.40
2022-10-16T09:23:05.737Z,12.40
2022-10-16T09:25:32.535Z,12.50
2022-10-16T09:27:59.289Z,12.50
2022-10-16T09:30:25.955Z,12.60
2022-10-16T09:32:52.685Z,12.60
2022-10-16T09:35:19.530Z,12.60
2022-10-16T09:37:46.531Z,12.70
2022-10-16T09:40:13.243Z,12.70
2022-10-16T09:42:39.908Z,12.80
2022-10-16T09:45:06.687Z,12.80
2022-10-16T09:47:33.504Z,12.80
2022-10-16T09:50:02.978Z,12.90
2022-10-16T09:52:29.763Z,12.90
2022-10-16T09:54:59.379Z,13.00
2022-10-16T09:57:26.440Z,13.00
2022-10-16T09:59:53.294Z,13.00
2022-10-16T10:02:20.142Z,13.10
2022-10-16T10:04:47.076Z,13.10
2022-10-16T10:07:14.207Z,13.10
2022-10-16T10:09:41.013Z,13.20
2022-10-16T10:12:07.657Z,13.20
2022-10-16T10:14:34.574Z,13.30
2022-10-16T10:17:01.253Z,13.30
2022-10-16T10:19:28.207Z,13.50
2022-10-16T10:21:58.867Z,13.60
2022-10-16T10:24:25.532Z,13.70
2022-10-16T10:26:52.316Z,13.80
2022-10-16T10:29:19.068Z,14.00
2022-10-16T10:31:45.751Z,14.10
2022-10-16T10:34:12.432Z,14.20
2022-10-16T10:36:39.169Z,14.30
2022-10-16T10:39:06.056Z,14.40
2022-10-16T10:41:32.807Z,14.50
2022-10-16T10:43:59.478Z,14.60
2022-10-16T10:46:26.166Z,14.70
2022-10-16T10:48:52.910Z,14.80
2022-10-16T10:51:22.214Z,14.90
2022-10-16T10:53:49.123Z,14.90
2022-10-16T10:56:16.040Z,15.00
2022-10-16T10:58:42.826Z,15.10
2022-10-16T11:01:09.648Z,15.10
2022-10-16T11:03:39.475Z,15.10
2022-10-16T11:06:06.712Z,15.20
2022-10-16T11:08:35.607Z,15.30
2022-10-16T11:11:02.250Z,15.30
2022-10-16T11:13:29.202Z,15.30
2022-10-16T11:15:57.354Z,15.40
2022-10-16T11:18:24.039Z,15.40
2022-10-16T11:20:50.752Z,15.50
2022-10-16T11:23:17.609Z,15.60
2022-10-16T11:25:44.453Z,15.60
2022-10-16T11:28:11.293Z,15.70
2022-10-16T11:30:41.125Z,15.80
2022-10-16T11:33:07.985Z,15.80
2022-10-16T11:35:34.855Z,15.90
2022-10-16T11:38:01.749Z,15.90
2022-10-16T11:40:28.581Z,15.90
2022-10-16T11:42:55.478Z,15.90
2022-10-16T11:45:22.141Z,15.90
2022-10-16T11:48:04.286Z,16.00
2022-10-16T11:50:31.180Z,16.00
2022-10-16T11:52:57.867Z,16.10
2022-10-16T11:55:24.616Z,16.10
2022-10-16T11:57:51.316Z,16.20
2022-10-16T12:00:18.082Z,16.30
2022-10-16T12:02:44.796Z,16.30
2022-10-16T12:05:11.502Z,16.30
2022-10-16T12:07:38.147Z,16.30
2022-10-16T12:10:04.859Z,16.40
2022-10-16T12:12:34.418Z,16.40
2022-10-16T12:15:16.299Z,16.40
2022-10-16T12:17:46.514Z,16.50
2022-10-16T12:20:13.170Z,16.50
2022-10-16T12:22:40.881Z,16.60
2022-10-16T12:25:08.264Z,16.60
2022-10-16T12:27:36.512Z,16.60
2022-10-16T12:30:03.573Z,16.60
2022-10-16T12:32:47.063Z,16.60
2022-10-16T12:35:15.306Z,16.50
2022-10-16T12:37:41.954Z,16.50
2022-10-16T12:40:08.622Z,16.50
2022-10-16T12:42:35.370Z,16.40
2022-10-16T12:45:02.042Z,16.40
2022-10-16T12:47:28.711Z,16.40
2022-10-16T12:49:55.527Z,16.40
2022-10-16T12:52:22.189Z,16.40
2022-10-16T12:54:48.909Z,16.30
2022-10-16T12:57:15.735Z,16.30
2022-10-16T12:59:42.416Z,16.30
2022-10-16T13:02:09.178Z,16.30
2022-10-16T13:04:35.908Z,16.40
2022-10-16T13:07:02.961Z,16.40
2022-10-16T13:09:29.733Z,16.40
2022-10-16T13:11:56.428Z,16.50
2022-10-16T13:14:23.145Z,16.50
2022-10-16T13:16:49.921Z,16.50
2022-10-16T13:19:16.956Z,16.50
2022-10-16T13:21:43.645Z,16.50
2022-10-16T13:24:10.525Z,16.50
2022-10-16T13:26:37.196Z,16.50
2022-10-16T13:29:03.949Z,16.50
2022-10-16T13:31:30.747Z,16.50
2022-10-16T13:33:57.521Z,16.50
2022-10-16T13:36:24.282Z,16.60
2022-10-16T13:38:50.953Z,16.60
2022-10-16T13:41:17.693Z,16.60
2022-10-16T13:43:44.343Z,16.60
2022-10-16T13:46:11.054Z,16.60
2022-10-16T13:48:37.759Z,16.60
2022-10-16T13:51:04.523Z,16.70
2022-10-16T13:53:31.198Z,16.70
2022-10-16T13:55:58.068Z,16.70
2022-10-16T13:58:24.765Z,16.70
2022-10-16T14:00:51.477Z,16.70
2022-10-16T14:03:18.156Z,16.80
2022-10-16T14:05:44.855Z,16.80
2022-10-16T14:08:11.598Z,16.70
2022-10-16T14:10:38.316Z,16.80
2022-10-16T14:13:05.258Z,16.70
2022-10-16T14:15:31.969Z,16.80
2022-10-16T14:17:58.658Z,16.70
2022-10-16T14:20:25.326Z,16.70
2022-10-16T14:22:52.044Z,16.70
2022-10-16T14:25:18.714Z,16.70
2022-10-16T14:27:45.422Z,16.70
2022-10-16T14:30:12.107Z,16.70
2022-10-16T14:32:38.857Z,16.70
2022-10-16T14:35:05.536Z,16.70
2022-10-16T14:37:32.389Z,16.70
2022-10-16T14:39:59.153Z,16.70
2022-10-16T14:42:25.887Z,16.70
2022-10-16T14:44:54.085Z,16.70
2022-10-16T14:47:26.258Z,16.70
2022-10-16T14:49:54.137Z,16.70
2022-10-16T14:52:20.796Z,16.70
2022-10-16T14:54:47.484Z,16.70
2022-10-16T14:57:14.208Z,16.70
2022-10-16T14:59:40.895Z,16.70
2022-10-16T15:02:07.618Z,16.70
2022-10-16T15:04:34.512Z,16.70
2022-10-16T15:07:01.204Z,16.70
2022-10-16T15:09:28.000Z,16.70
2022-10-16T15:11:54.689Z,16.60
2022-10-16T15:14:21.474Z,16.60
2022-10-16T15:16:48.128Z,16.60
2022-10-16T15:19:14.848Z,16.50
2022-10-16T15:21:41.639Z,16.50
2022-10-16T15:24:08.349Z,16.40
2022-10-16T15:26:35.055Z,16.40
2022-10-16T15:29:01.765Z,16.40
2022-10-16T15:31:28.630Z,16.30
2022-10-16T15:33:59.144Z,16.40
2022-10-16T15:36:26.017Z,16.30
2022-10-16T15:38:52.713Z,16.30
2022-10-16T15:41:19.427Z,16.30
2022-10-16T15:43:46.101Z,16.20
2022-10-16T15:46:13.334Z,16.20
2022-10-16T15:48:39.998Z,16.20
2022-10-16T15:51:06.815Z,16.20
2022-10-16T15:53:34.961Z,16.20
2022-10-16T15:56:01.580Z,16.10
2022-10-16T15:58:28.287Z,16.10
2022-10-16T16:00:54.950Z,16.10
2022-10-16T16:03:21.632Z,16.10
2022-10-16T16:05:48.361Z,16.10
2022-10-16T16:08:15.115Z,16.00
2022-10-16T16:10:42.098Z,16.00
2022-10-16T16:13:08.768Z,16.00
2022-10-16T16:15:35.430Z,16.00
2022-10-16T16:18:03.366Z,15.90
2022-10-16T16:20:30.102Z,15.90
2022-10-16T16:22:56.750Z,15.90
2022-10-16T16:25:23.523Z,15.80
2022-10-16T16:27:50.221Z,15.90
2022-10-16T16:30:19.923Z,15.80
2022-10-16T16:32:48.619Z,15.80
2022-10-16T16:35:15.334Z,15.80
2022-10-16T16:37:42.033Z,15.70
2022-10-16T16:40:08.841Z,15.70
2022-10-16T16:42:35.509Z,15.70
2022-10-16T16:45:02.186Z,15.70
2022-10-16T16:47:29.149Z,15.60
2022-10-16T16:49:59.151Z,15.60
2022-10-16T16:52:25.858Z,15.60
2022-10-16T16:54:53.012Z,15.60
2022-10-16T16:57:19.935Z,15.50
2022-10-16T16:59:46.750Z,15.50
2022-10-16T17:02:13.455Z,15.50
2022-10-16T17:04:40.246Z,15.50
2022-10-16T17:07:06.925Z,15.50
2022-10-16T17:09:34.412Z,15.40
2022-10-16T17:12:01.217Z,15.40
2022-10-16T17:14:27.940Z,15.40
2022-10-16T17:16:54.596Z,15.40
2022-10-16T17:19:21.332Z,15.40
2022-10-16T17:21:48.021Z,15.40
2022-10-16T17:24:14.727Z,15.40
2022-10-16T17:26:44.477Z,15.40
2022-10-16T17:29:11.212Z,15.40
2022-10-16T17:31:37.987Z,15.40
2022-10-16T17:34:04.831Z,15.30
2022-10-16T17:36:31.639Z,15.40
2022-10-16T17:39:00.396Z,15.40
2022-10-16T17:41:27.116Z,15.30
2022-10-16T17:43:53.846Z,15.30
2022-10-16T17:46:20.566Z,15.20
2022-10-16T17:48:47.459Z,15.30
2022-10-16T17:51:14.509Z,15.20
2022-10-16T17:53:41.285Z,15.20
2022-10-16T17:56:07.968Z,15.20
2022-10-16T17:58:34.761Z,15.20
2022-10-16T18:01:01.565Z,15.20
2022-10-16T18:03:28.368Z,15.20
2022-10-16T18:05:55.524Z,15.20
2022-10-16T18:08:23.824Z,15.20
2022-10-16T18:10:53.243Z,15.20
2022-10-16T18:13:19.944Z,15.20
2022-10-16T18:15:46.696Z,15.10
2022-10-16T18:18:13.424Z,15.10
2022-10-16T18:20:40.245Z,15.10
2022-10-16T18:23:07.025Z,15.10
2022-10-16T18:25:36.697Z,15.00
2022-10-16T18:28:06.827Z,15.00
2022-10-16T18:30:33.508Z,15.00
2022-10-16T18:33:00.209Z,15.00
2022-10-16T18:35:26.927Z,15.00
2022-10-16T18:37:55.877Z,15.00
2022-10-16T18:40:22.560Z,15.00
2022-10-16T18:42:50.245Z,15.00
2022-10-16T18:45:16.988Z,15.00
2022-10-16T18:47:43.841Z,15.10
2022-10-16T18:50:11.826Z,15.10
2022-10-16T18:52:40.371Z,15.10
2022-10-16T18:55:07.148Z,15.10
2022-10-16T18:57:33.868Z,15.10
2022-10-16T19:00:00.596Z,15.10
2022-10-16T19:02:27.281Z,15.00
2022-10-16T19:04:54.009Z,15.00
2022-10-16T19:07:20.733Z,15.10
2022-10-16T19:09:47.411Z,15.10
2022-10-16T19:12:14.179Z,15.10
2022-10-16T19:14:40.869Z,15.10
2022-10-16T19:17:07.576Z,15.10
2022-10-16T19:19:34.327Z,15.10
2022-10-16T19:22:28.099Z,15.00
2022-10-16T19:24:55.315Z,15.10
2022-10-16T19:27:22.007Z,15.00
2022-10-16T19:29:49.048Z,15.00
2022-10-16T19:32:15.818Z,15.00
2022-10-16T19:34:42.506Z,15.00
2022-10-16T19:37:11.064Z,15.00
2022-10-16T19:39:37.981Z,15.00
2022-10-16T19:42:04.649Z,15.00
2022-10-16T19:44:31.603Z,15.00
2022-10-16T19:46:58.463Z,15.00
2022-10-16T19:49:25.203Z,15.00
2022-10-16T19:51:52.274Z,15.00
2022-10-16T19:54:18.978Z,15.00
2022-10-16T19:56:45.888Z,15.00
2022-10-16T19:59:13.513Z,15.00
2022-10-16T20:01:43.130Z,15.10
2022-10-16T20:04:12.695Z,15.10
2022-10-16T20:06:39.466Z,15.00
2022-10-16T20:09:06.322Z,15.10
2022-10-16T20:11:35.619Z,15.10
2022-10-16T20:14:05.257Z,15.10
2022-10-16T20:16:32.517Z,15.10
2022-10-16T20:18:59.369Z,15.10
2022-10-16T20:21:26.038Z,15.10
2022-10-16T20:23:53.110Z,15.20
2022-10-16T20:26:19.933Z,15.20
2022-10-16T20:28:46.725Z,15.20
2022-10-16T20:31:13.663Z,15.20
2022-10-16T20:33:41.477Z,15.20
2022-10-16T20:36:08.345Z,15.20
2022-10-16T20:38:35.283Z,15.20
2022-10-16T20:41:01.992Z,15.20
2022-10-16T20:43:28.725Z,15.20
2022-10-16T20:45:55.394Z,15.20
2022-10-16T20:48:24.725Z,15.20
2022-10-16T20:50:51.478Z,15.20
2022-10-16T20:53:18.221Z,15.30
2022-10-16T20:55:44.977Z,15.30
2022-10-16T20:58:12.797Z,15.30
2022-10-16T21:00:39.591Z,15.30
2022-10-16T21:03:06.269Z,15.30
2022-10-16T21:05:35.982Z,15.30
2022-10-16T21:08:05.193Z,15.30
2022-10-16T21:10:32.780Z,15.30
2022-10-16T21:13:00.633Z,15.30
2022-10-16T21:15:27.328Z,15.40
2022-10-16T21:17:56.613Z,15.30
2022-10-16T21:20:23.355Z,15.30
2022-10-16T21:22:49.990Z,15.30
2022-10-16T21:25:16.709Z,15.30
2022-10-16T21:27:43.524Z,15.40
2022-10-16T21:30:10.313Z,15.40
2022-10-16T21:32:36.984Z,15.40
2022-10-16T21:35:04.060Z,15.40
2022-10-16T21:37:30.690Z,15.40
2022-10-16T21:39:57.452Z,15.40
2022-10-16T21:42:24.210Z,15.50
2022-10-16T21:44:51.057Z,15.50
2022-10-16T21:47:17.750Z,15.50
2022-10-16T21:49:44.445Z,15.50
2022-10-16T21:52:11.734Z,15.50
2022-10-16T21:54:38.423Z,15.50
2022-10-16T21:59:36.660Z,15.50
2022-10-16T22:02:03.418Z,15.60
2022-10-16T22:04:30.201Z,15.60
2022-10-16T22:06:56.886Z,15.60
2022-10-16T22:09:23.544Z,15.60
2022-10-16T22:11:51.050Z,15.60
2022-10-16T22:14:17.753Z,15.70
2022-10-16T22:16:44.640Z,15.70
2022-10-16T22:19:11.414Z,15.70
2022-10-16T22:21:38.077Z,15.70
2022-10-16T22:24:04.825Z,15.80
2022-10-16T22:26:31.481Z,15.80
2022-10-16T22:28:58.223Z,15.80
2022-10-16T22:31:24.944Z,15.80
2022-10-16T22:33:51.698Z,15.90
2022-10-16T22:36:18.489Z,15.80
2022-10-16T22:38:45.233Z,15.90
2022-10-16T22:41:11.987Z,15.90
2022-10-16T22:43:38.754Z,15.90
2022-10-16T22:46:05.690Z,15.90
2022-10-16T22:48:32.361Z,15.90
2022-10-16T22:50:59.021Z,15.90
2022-10-16T22:53:25.729Z,15.90
2022-10-16T22:55:52.419Z,15.90
2022-10-16T22:58:19.089Z,15.90
2022-10-16T23:00:45.848Z,15.90
2022-10-16T23:03:12.610Z,16.00
2022-10-16T23:05:39.498Z,16.00
2022-10-16T23:08:07.171Z,16.00
2022-10-16T23:10:33.919Z,16.10
2022-10-16T23:13:00.658Z,16.10
2022-10-16T23:15:27.363Z,16.10
2022-10-16T23:17:54.021Z,16.20
2022-10-16T23:20:20.852Z,16.20
2022-10-16T23:22:47.514Z,16.20
2022-10-16T23:25:14.202Z,16.30
2022-10-16T23:27:40.950Z,16.30
2022-10-16T23:30:07.794Z,16.30
2022-10-16T23:32:34.533Z,16.30
2022-10-16T23:35:01.257Z,16.40
2022-10-16T23:37:27.953Z,16.40
2022-10-16T23:39:54.616Z,16.40
2022-10-16T23:42:21.291Z,16.40
2022-10-16T23:44:48.010Z,16.40
2022-10-16T23:47:14.715Z,16.50
2022-10-16T23:49:41.492Z,16.50
2022-10-16T23:52:08.185Z,16.50
2022-10-16T23:54:34.865Z,16.60
2022-10-16T23:57:01.611Z,16.60
2022-10-16T23:59:28.287Z,16.60
